Time;durP1;ratioP1;P1;durP2;ratioP2;P2;SDS_P1;SDS_P2;PMS_P1;PMS_P2;Temp;Humidity;BMP_temperature;BMP_pressure;BME280_temperature;BME280_humidity;BME280_pressure;Samples;Min_cycle;Max_cycle;Signal;HPM_P1;HPM_P2
2022/08/25 00:02:02;;;;;;;6.82;4.47;;;;;;;18.29;100.00;90895.03;5051022;28;20040;-61
2022/08/25 00:04:28;;;;;;;5.97;4.47;;;;;;;18.32;100.00;90897.03;5052177;28;20480;-61
2022/08/25 00:06:54;;;;;;;7.07;4.82;;;;;;;18.38;100.00;90895.59;5051714;28;20506;-62
2022/08/25 00:09:25;;;;;;;7.75;4.32;;;;;;;18.33;100.00;90890.50;5051564;28;20052;-61
2022/08/25 00:11:51;;;;;;;10.02;5.20;;;;;;;18.33;100.00;90891.28;5051056;28;20040;-61
2022/08/25 00:14:23;;;;;;;10.38;4.88;;;;;;;18.27;100.00;90893.47;5052034;28;20029;-61
2022/08/25 00:16:49;;;;;;;9.60;5.45;;;;;;;18.26;100.00;90894.59;5051623;28;20033;-61
2022/08/25 00:19:19;;;;;;;5.97;4.50;;;;;;;18.42;100.00;90888.34;5051623;28;20094;-61
2022/08/25 00:21:45;;;;;;;6.60;4.50;;;;;;;18.47;100.00;90890.78;5051658;28;20033;-61
2022/08/25 00:24:12;;;;;;;6.10;4.75;;;;;;;18.51;100.00;90897.00;5051657;28;20068;-61
2022/08/25 00:26:41;;;;;;;8.45;4.30;;;;;;;18.56;100.00;90902.09;5051491;28;20043;-62
2022/08/25 00:29:08;;;;;;;7.50;4.35;;;;;;;18.48;100.00;90897.72;5051089;28;20033;-61
2022/08/25 00:31:34;;;;;;;5.90;4.43;;;;;;;18.59;100.00;90895.97;5051459;28;20060;-61
2022/08/25 00:34:00;;;;;;;12.07;4.55;;;;;;;18.58;100.00;90891.72;5051427;28;20032;-61
2022/08/25 00:36:27;;;;;;;7.63;4.85;;;;;;;18.48;100.00;90905.81;5051016;28;20048;-62
2022/08/25 00:38:53;;;;;;;9.10;4.85;;;;;;;18.51;100.00;90902.38;5051181;28;20033;-62
2022/08/25 00:41:23;;;;;;;7.65;5.13;;;;;;;18.46;100.00;90897.28;5051313;28;20044;-61
2022/08/25 00:43:59;;;;;;;6.00;4.90;;;;;;;18.50;100.00;90898.13;5051353;28;20028;-61
2022/08/25 00:46:31;;;;;;;5.80;4.25;;;;;;;18.42;100.00;90902.59;5051217;28;20037;-62
2022/08/25 00:49:00;;;;;;;8.95;4.47;;;;;;;18.33;100.00;90899.38;5051291;28;20029;-61
2022/08/25 00:51:50;;;;;;;7.50;4.93;;;;;;;18.41;100.00;90908.34;5051237;28;20043;-61
2022/08/25 00:54:21;;;;;;;6.55;4.78;;;;;;;18.38;100.00;90899.06;5051146;28;20029;-61
2022/08/25 00:56:47;;;;;;;9.13;4.30;;;;;;;18.44;100.00;90889.56;5050973;28;20145;-61
2022/08/25 00:59:13;;;;;;;6.55;4.20;;;;;;;18.51;100.00;90894.31;5051318;28;20059;-62
2022/08/25 01:01:38;;;;;;;8.20;4.25;;;;;;;18.51;100.00;90886.22;5051047;28;20029;-62
2022/08/25 01:04:04;;;;;;;6.40;4.78;;;;;;;18.52;100.00;90885.09;5051106;28;20040;-62
2022/08/25 01:06:34;;;;;;;7.28;4.32;;;;;;;18.58;100.00;90886.34;5050975;28;20033;-62
2022/08/25 01:09:00;;;;;;;6.82;4.25;;;;;;;18.71;100.00;90885.06;5050839;28;20052;-62
2022/08/25 01:11:26;;;;;;;8.13;4.90;;;;;;;18.71;100.00;90887.75;5051060;28;20031;-62
2022/08/25 01:13:55;;;;;;;9.70;4.47;;;;;;;18.78;100.00;90890.59;5051249;28;20029;-62
2022/08/25 01:16:22;;;;;;;6.32;4.28;;;;;;;18.73;100.00;90888.19;5050904;28;20068;-62
2022/08/25 01:18:55;;;;;;;6.05;4.30;;;;;;;18.68;100.00;90885.78;5050851;28;20021;-61
2022/08/25 01:21:22;;;;;;;;;;;;;;;18.76;100.00;90878.59;5051350;28;20056;-61
2022/08/25 01:23:49;;;;;;;8.00;4.20;;;;;;;18.70;100.00;90885.44;5054649;28;20366;-62
2022/08/25 01:26:23;;;;;;;8.30;5.05;;;;;;;18.64;100.00;90879.56;5054826;28;20039;-62
2022/08/25 01:31:36;;;;;;;9.15;4.63;;;;;;;18.62;100.00;90876.44;5055139;28;20563;-62
2022/08/25 01:34:04;;;;;;;6.82;4.07;;;;;;;18.48;100.00;90876.16;5054776;28;20513;-62
2022/08/25 01:36:30;;;;;;;6.60;4.15;;;;;;;18.43;100.00;90884.53;5054584;28;20491;-63
2022/08/25 01:38:56;;;;;;;8.65;4.40;;;;;;;18.36;100.00;90882.50;5054650;28;20104;-62
2022/08/25 01:41:38;;;;;;;9.02;4.63;;;;;;;18.17;100.00;90877.91;5054703;28;20395;-62
2022/08/25 01:44:04;;;;;;;9.30;4.38;;;;;;;18.05;100.00;90878.06;5054661;28;20033;-61
2022/08/25 01:46:31;;;;;;;8.25;4.80;;;;;;;18.01;100.00;90869.13;5053919;28;20031;-62
2022/08/25 01:48:56;;;;;;;7.18;4.82;;;;;;;18.06;100.00;90871.53;5054411;28;20044;-62
2022/08/25 01:51:26;;;;;;;9.95;5.03;;;;;;;17.94;100.00;90874.38;5054491;28;20025;-62
2022/08/25 01:53:52;;;;;;;8.90;5.28;;;;;;;17.86;100.00;90883.44;5054438;28;20032;-62
2022/08/25 01:56:18;;;;;;;5.75;3.92;;;;;;;17.83;100.00;90879.56;5054239;28;20094;-61
2022/08/25 01:58:46;;;;;;;9.40;5.80;;;;;;;17.77;100.00;90886.31;5054320;28;20179;-61
2022/08/25 02:01:18;;;;;;;6.88;4.38;;;;;;;17.74;100.00;90897.03;5054427;28;20024;-61
2022/08/25 02:03:46;;;;;;;7.10;5.00;;;;;;;17.78;100.00;90885.19;5054445;28;20040;-61
2022/08/25 02:06:14;;;;;;;6.53;4.70;;;;;;;17.86;100.00;90883.44;5053936;28;20040;-62
2022/08/25 02:08:40;;;;;;;5.43;4.15;;;;;;;17.75;100.00;90882.44;5053792;28;20060;-62
2022/08/25 02:11:10;;;;;;;5.07;4.15;;;;;;;17.71;100.00;90881.59;5054126;28;20467;-61
2022/08/25 02:13:36;;;;;;;6.53;3.83;;;;;;;17.74;100.00;90880.88;5054307;28;20199;-61
2022/08/25 02:16:02;;;;;;;5.50;4.05;;;;;;;17.83;100.00;90882.25;5053995;28;20033;-62
2022/08/25 02:18:28;;;;;;;5.32;3.53;;;;;;;17.85;100.00;90881.88;5053922;28;20017;-61
2022/08/25 02:20:53;;;;;;;5.40;3.30;;;;;;;17.80;100.00;90868.69;5053950;28;20095;-61
2022/08/25 02:23:19;;;;;;;2.85;2.55;;;;;;;17.76;100.00;90857.88;5053905;28;20021;-62
2022/08/25 02:25:46;;;;;;;6.60;2.33;;;;;;;17.59;100.00;90869.78;5053807;28;20410;-61
2022/08/25 02:28:12;;;;;;;4.13;2.17;;;;;;;17.50;100.00;90866.50;5053720;28;20025;-61
2022/08/25 02:30:41;;;;;;;2.30;2.08;;;;;;;17.50;100.00;90863.81;5053788;28;20052;-61
2022/08/25 02:33:07;;;;;;;3.15;1.80;;;;;;;17.43;100.00;90866.38;5053698;28;20040;-61
2022/08/25 02:35:33;;;;;;;2.70;1.88;;;;;;;17.44;100.00;90859.84;5053285;28;20115;-62
2022/08/25 02:37:59;;;;;;;2.05;1.60;;;;;;;17.38;100.00;90865.88;5053681;28;20025;-61
2022/08/25 02:40:25;;;;;;;3.05;1.70;;;;;;;17.37;100.00;90867.78;5053609;28;20114;-62
2022/08/25 02:42:50;;;;;;;4.30;2.13;;;;;;;17.34;100.00;90868.47;5053733;28;20108;-62
2022/08/25 02:45:17;;;;;;;2.33;2.13;;;;;;;17.39;100.00;90876.28;5053518;28;20115;-62
2022/08/25 02:47:43;;;;;;;2.97;2.53;;;;;;;17.47;100.00;90872.59;5053324;28;20017;-62
2022/08/25 02:50:09;;;;;;;3.30;1.75;;;;;;;17.43;100.00;90866.38;5053372;28;20090;-62
2022/08/25 02:52:35;;;;;;;2.05;1.85;;;;;;;17.46;100.00;90864.88;5053358;28;20079;-62
2022/08/25 02:55:06;;;;;;;1.75;1.65;;;;;;;17.42;100.00;90859.44;5053324;28;20048;-62
2022/08/25 02:57:32;;;;;;;1.77;1.52;;;;;;;17.42;100.00;90867.50;5053317;28;20462;-62
2022/08/25 02:59:58;;;;;;;2.78;2.22;;;;;;;17.38;100.00;90869.34;5053221;28;20112;-62
2022/08/25 03:02:25;;;;;;;2.10;1.90;;;;;;;17.30;100.00;90871.06;5053401;28;20055;-62
2022/08/25 03:04:52;;;;;;;2.25;1.90;;;;;;;17.26;100.00;90870.22;5053140;28;20108;-62
2022/08/25 03:07:19;;;;;;;4.07;1.80;;;;;;;17.21;100.00;90867.03;5052912;28;20120;-62
2022/08/25 03:09:44;;;;;;;2.95;1.95;;;;;;;17.26;100.00;90861.38;5170124;22;20186;-62
2022/08/25 03:12:11;;;;;;;2.83;2.00;;;;;;;17.29;100.00;90869.50;5033135;28;20104;-62
2022/08/25 03:14:38;;;;;;;3.00;2.00;;;;;;;17.41;100.00;90874.00;5033008;28;20029;-62
2022/08/25 03:17:05;;;;;;;5.28;2.33;;;;;;;17.41;100.00;90874.00;5033031;28;20059;-62
2022/08/25 03:19:30;;;;;;;2.25;1.77;;;;;;;17.46;100.00;90884.47;5032797;28;20029;-62
2022/08/25 03:21:56;;;;;;;3.15;2.35;;;;;;;17.38;100.00;90879.31;5032847;28;20079;-62
2022/08/25 03:24:26;;;;;;;3.00;2.70;;;;;;;17.35;100.00;90876.16;5033081;28;20040;-62
2022/08/25 03:26:55;;;;;;;2.83;2.00;;;;;;;17.40;100.00;90883.22;5032842;28;20037;-62
2022/08/25 03:29:32;;;;;;;2.53;1.92;;;;;;;17.43;100.00;90877.13;5032742;28;20116;-62
2022/08/25 03:31:59;;;;;;;2.00;1.80;;;;;;;17.47;100.00;90874.50;5032938;28;20036;-62
2022/08/25 03:34:29;;;;;;;2.38;2.17;;;;;;;17.53;100.00;90871.19;5032614;28;20110;-62
2022/08/25 03:36:56;;;;;;;3.88;2.03;;;;;;;17.47;100.00;90872.59;5032850;28;20112;-62
2022/08/25 03:39:24;;;;;;;8.82;4.63;;;;;;;17.51;100.00;90867.28;5032453;28;20152;-62
2022/08/25 03:41:51;;;;;;;11.50;5.25;;;;;;;17.52;100.00;90869.66;5032779;28;20030;-62
2022/08/25 03:44:18;;;;;;;7.13;4.57;;;;;;;17.43;100.00;90871.75;5032340;28;20418;-62
2022/08/25 03:46:46;;;;;;;6.68;3.83;;;;;;;17.41;100.00;90874.00;5032355;28;20057;-62
2022/08/25 03:49:18;;;;;;;3.60;2.63;;;;;;;17.40;100.00;90872.44;5032357;28;20021;-62
2022/08/25 03:51:47;;;;;;;3.35;2.45;;;;;;;17.38;100.00;90863.97;5032340;28;20025;-62
2022/08/25 03:54:19;;;;;;;3.15;2.40;;;;;;;17.31;100.00;90869.16;5032269;28;20036;-62
2022/08/25 03:56:44;;;;;;;3.53;2.35;;;;;;;17.33;100.00;90869.59;5032225;28;20042;-62
2022/08/25 03:59:10;;;;;;;2.30;2.10;;;;;;;17.46;100.00;90876.41;5032046;28;20156;-62
2022/08/25 04:01:41;;;;;;;2.22;2.00;;;;;;;17.39;100.00;90857.44;5032293;28;20048;-62
2022/08/25 04:04:09;;;;;;;1.75;1.65;;;;;;;17.44;100.00;90857.16;5032084;28;20120;-62
2022/08/25 04:06:34;;;;;;;7.03;2.50;;;;;;;17.55;100.00;90866.25;5032096;28;20122;-62
2022/08/25 04:09:00;;;;;;;3.53;2.50;;;;;;;17.64;100.00;90860.66;5031748;28;20507;-62
2022/08/25 04:11:27;;;;;;;3.13;1.95;;;;;;;17.60;100.00;90860.56;5031853;28;20050;-62
2022/08/25 04:13:56;;;;;;;3.17;2.88;;;;;;;17.66;100.00;90869.91;5031931;28;20033;-62
2022/08/25 04:16:25;;;;;;;5.43;2.28;;;;;;;17.72;100.00;90859.72;5031869;28;20029;-62
2022/08/25 04:18:51;;;;;;;4.72;2.13;;;;;;;17.78;100.00;90866.34;5031676;28;20026;-62
2022/08/25 04:21:19;;;;;;;10.68;6.90;;;;;;;17.82;100.00;90867.19;5031746;28;20029;-62
2022/08/25 04:23:47;;;;;;;2.38;2.10;;;;;;;17.83;100.00;90871.47;5031979;28;20049;-62
2022/08/25 04:26:19;;;;;;;3.28;2.30;;;;;;;17.85;100.00;90866.50;5031581;28;20529;-61
2022/08/25 04:28:45;;;;;;;2.53;2.08;;;;;;;17.91;100.00;90869.69;5031538;28;20116;-62
2022/08/25 04:31:16;;;;;;;3.90;2.03;;;;;;;17.76;100.00;90870.53;5031643;28;20031;-62
2022/08/25 04:33:42;;;;;;;2.20;2.00;;;;;;;17.82;100.00;90874.50;5031494;28;20084;-62
2022/08/25 04:36:12;;;;;;;3.17;2.38;;;;;;;17.99;100.00;90876.78;5031702;28;20562;-62
2022/08/25 04:38:40;;;;;;;2.17;1.90;;;;;;;17.89;100.00;90871.97;5014340;28;20022;-62
2022/08/25 04:41:07;;;;;;;2.30;2.10;;;;;;;17.97;100.00;90870.97;5011644;28;20046;-62
2022/08/25 04:43:33;;;;;;;3.83;2.20;;;;;;;17.94;100.00;90867.06;5011754;28;20080;-62
2022/08/25 04:45:59;;;;;;;2.30;2.10;;;;;;;18.12;100.00;90870.09;5011617;28;20044;-62
2022/08/25 04:48:25;;;;;;;3.97;2.13;;;;;;;18.23;100.00;90871.09;5011558;28;20034;-62
2022/08/25 04:50:51;;;;;;;3.58;2.50;;;;;;;18.26;100.00;90867.69;5011580;28;20058;-62
2022/08/25 04:53:18;;;;;;;3.75;2.00;;;;;;;18.32;100.00;90862.81;5011629;28;20459;-62
2022/08/25 04:55:46;;;;;;;2.90;2.30;;;;;;;18.42;100.00;90856.81;5011878;28;20042;-63
2022/08/25 04:58:12;;;;;;;3.35;2.88;;;;;;;18.61;100.00;90863.28;5010923;28;20025;-63
2022/08/25 05:00:39;;;;;;;5.47;3.70;;;;;;;18.71;100.00;90858.13;5011791;28;20037;-62
2022/08/25 05:03:05;;;;;;;4.05;3.60;;;;;;;18.74;100.00;90852.00;5011732;28;20478;-62
2022/08/25 05:05:34;;;;;;;4.10;3.58;;;;;;;18.70;100.00;90851.16;5011495;28;20057;-62
2022/08/25 05:07:59;;;;;;;6.53;3.55;;;;;;;18.62;100.00;90848.66;4993886;28;20547;-62
2022/08/25 05:10:25;;;;;;;5.82;2.65;;;;;;;18.78;100.00;90850.16;5011159;28;20060;-62
2022/08/25 05:12:50;;;;;;;5.20;2.58;;;;;;;18.87;100.00;90858.00;5011363;28;20100;-62
2022/08/25 05:18:00;;;;;;;3.35;2.78;;;;;;;20.09;100.00;90836.22;5011327;28;20040;-62
2022/08/25 05:20:25;;;;;;;2.70;2.30;;;;;;;20.97;100.00;90832.84;5011559;28;20026;-62
2022/08/25 05:22:51;;;;;;;6.72;3.00;;;;;;;21.12;100.00;90832.56;5011329;28;20032;-62
2022/08/25 05:25:17;;;;;;;3.35;3.03;;;;;;;20.57;100.00;90839.84;5011608;28;20075;-62
2022/08/25 05:27:42;;;;;;;4.10;2.90;;;;;;;20.57;100.00;90848.72;5011321;28;20105;-62
2022/08/25 05:30:10;;;;;;;4.45;2.78;;;;;;;20.39;100.00;90853.13;5011425;28;20498;-62
2022/08/25 05:32:35;;;;;;;3.55;2.85;;;;;;;20.25;100.00;90845.66;5011451;28;20462;-62
2022/08/25 05:35:00;;;;;;;2.40;2.20;;;;;;;20.84;100.00;90848.59;5011233;28;20033;-63
2022/08/25 05:37:26;;;;;;;3.63;2.80;;;;;;;22.14;100.00;90846.38;5011101;28;20036;-62
2022/08/25 05:39:51;;;;;;;4.55;2.65;;;;;;;22.56;100.00;90845.72;5011067;28;20049;-62
2022/08/25 05:42:17;;;;;;;2.80;2.47;;;;;;;22.02;100.00;90855.59;5011077;28;20079;-62
2022/08/25 05:44:42;;;;;;;4.78;3.03;;;;;;;21.83;100.00;90849.31;5011078;28;20026;-62
2022/08/25 05:47:08;;;;;;;3.33;2.83;;;;;;;21.28;100.00;90853.19;5011102;28;20058;-62
2022/08/25 05:49:34;;;;;;;3.17;2.85;;;;;;;21.65;100.00;90853.09;5011247;28;20103;-62
2022/08/25 05:51:59;;;;;;;4.68;2.95;;;;;;;21.81;100.00;90851.63;5010953;28;20038;-62
2022/08/25 05:54:24;;;;;;;3.65;2.85;;;;;;;21.58;100.00;90848.38;5010943;28;20038;-63
2022/08/25 05:56:50;;;;;;;4.30;2.53;;;;;;;21.62;100.00;90854.63;5010962;28;20108;-63
2022/08/25 05:59:16;;;;;;;5.45;3.22;;;;;;;21.51;100.00;90851.84;5010759;28;20025;-62
2022/08/25 06:04:26;;;;;;;5.13;3.75;;;;;;;22.09;100.00;90853.72;5010955;28;20164;-62
2022/08/25 06:06:53;;;;;;;4.70;3.08;;;;;;;22.00;100.00;90850.56;5010892;28;20418;-62
2022/08/25 06:09:20;;;;;;;4.72;3.08;;;;;;;21.81;100.00;90859.75;5027105;28;20057;-63
2022/08/25 06:11:46;;;;;;;8.65;3.90;;;;;;;21.90;100.00;90853.19;5034134;28;20029;-63
2022/08/25 06:14:11;;;;;;;5.30;3.70;;;;;;;22.00;100.00;90860.63;5034050;28;20443;-63
2022/08/25 06:16:38;;;;;;;4.90;3.00;;;;;;;22.14;100.00;90857.22;5033972;28;20063;-63
2022/08/25 06:19:04;;;;;;;6.28;3.58;;;;;;;22.08;100.00;90859.50;5034119;28;20033;-63
2022/08/25 06:21:30;;;;;;;5.32;4.25;;;;;;;21.91;100.00;90871.00;5034051;28;20029;-62
2022/08/25 06:23:55;;;;;;;8.10;3.95;;;;;;;21.19;100.00;90870.53;5033959;28;20044;-63
2022/08/25 06:26:22;;;;;;;5.90;3.75;;;;;;;21.43;100.00;90860.28;5034174;28;20021;-63
2022/08/25 06:28:49;;;;;;;4.85;3.30;;;;;;;21.87;100.00;90862.09;5033658;28;20117;-62
2022/08/25 06:31:15;;;;;;;8.68;3.88;;;;;;;22.48;100.00;90852.31;5033952;28;20033;-62
2022/08/25 06:33:42;;;;;;;5.00;3.80;;;;;;;22.90;100.00;90859.81;5033962;28;20037;-62
2022/08/25 06:36:08;;;;;;;5.20;4.20;;;;;;;23.15;100.00;90859.81;5033898;28;20056;-62
2022/08/25 06:38:33;;;;;;;5.78;4.30;;;;;;;24.73;100.00;90854.41;5033538;28;20112;-62
2022/08/25 06:44:21;;;;;;;6.00;5.28;;;;;;;28.43;72.25;90868.41;5033863;28;20179;-62
2022/08/25 06:46:46;;;;;;;6.97;5.60;;;;;;;28.59;67.92;90862.22;5033661;28;20112;-62
2022/08/25 06:49:12;;;;;;;11.88;6.28;;;;;;;29.84;64.86;90859.53;5033384;28;20454;-63
2022/08/25 06:51:38;;;;;;;8.98;6.28;;;;;;;29.49;62.05;90857.19;5033443;28;20036;-63
2022/08/25 06:54:05;;;;;;;7.90;5.13;;;;;;;30.19;59.95;90860.63;5033699;28;20022;-62
2022/08/25 06:56:31;;;;;;;7.00;5.43;;;;;;;29.95;60.20;90854.50;5033438;28;20072;-63
2022/08/25 06:58:57;;;;;;;6.38;5.45;;;;;;;29.88;58.13;90855.47;5033159;28;20053;-62
2022/08/25 07:01:25;;;;;;;10.95;6.15;;;;;;;29.09;60.05;90853.75;5033269;28;20538;-62
2022/08/25 07:03:57;;;;;;;12.43;6.65;;;;;;;27.42;65.60;90856.78;5033555;28;20034;-62
2022/08/25 07:06:23;;;;;;;10.10;6.93;;;;;;;26.74;70.84;90852.28;5033109;28;20514;-62
2022/08/25 07:08:49;;;;;;;10.75;6.93;;;;;;;26.06;75.25;90851.50;5032760;28;20418;-63
2022/08/25 07:11:15;;;;;;;22.35;11.32;;;;;;;25.02;91.80;90848.84;5033123;28;20026;-63
2022/08/25 07:13:41;;;;;;;11.65;7.13;;;;;;;24.39;97.83;90861.59;5033094;28;20037;-63
2022/08/25 07:16:09;;;;;;;8.27;6.97;;;;;;;23.78;100.00;90869.09;5032964;28;20034;-63
2022/08/25 07:18:35;;;;;;;9.13;7.05;;;;;;;23.46;100.00;90856.31;5032668;28;20505;-63
2022/08/25 07:21:01;;;;;;;11.98;7.03;;;;;;;23.57;100.00;90850.91;5032396;28;20029;-63
2022/08/25 07:23:27;;;;;;;12.05;7.53;;;;;;;23.98;100.00;90853.91;5032777;28;20483;-64
2022/08/25 07:25:54;;;;;;;9.68;6.82;;;;;;;24.67;98.46;90847.88;5032763;28;20029;-65
2022/08/25 07:28:21;;;;;;;12.50;7.40;;;;;;;25.84;94.32;90854.41;5032782;28;20040;-64
2022/08/25 07:30:49;;;;;;;10.23;5.57;;;;;;;28.82;70.97;90867.59;5032655;28;20036;-66
2022/08/25 07:33:14;;;;;;;11.05;7.20;;;;;;;29.31;65.57;90851.31;5032857;28;20033;-65
2022/08/25 07:35:40;;;;;;;10.75;5.88;;;;;;;30.53;61.10;90866.34;5032528;28;20029;-66
2022/08/25 07:38:06;;;;;;;7.80;5.82;;;;;;;31.32;57.72;90859.44;5032392;28;20057;-66
2022/08/25 07:40:35;;;;;;;9.38;6.03;;;;;;;30.09;57.87;90856.94;5032472;28;20029;-66
2022/08/25 07:43:06;;;;;;;10.25;7.15;;;;;;;27.37;66.46;90849.06;5032438;28;20561;-66
2022/08/25 07:45:34;;;;;;;12.13;7.72;;;;;;;26.32;78.53;90853.53;5032359;28;20406;-67
2022/08/25 07:48:03;;;;;;;10.63;7.32;;;;;;;25.57;88.38;90853.50;5032310;28;20439;-68
2022/08/25 07:50:30;;;;;;;8.73;6.45;;;;;;;25.46;93.82;90853.59;5032200;28;20052;-67
2022/08/25 07:52:57;;;;;;;8.07;7.18;;;;;;;25.35;93.16;90845.47;5032121;28;20487;-67
2022/08/25 07:55:25;;;;;;;8.30;5.85;;;;;;;25.03;93.41;90847.66;5032160;28;20113;-67
2022/08/25 07:57:51;;;;;;;10.40;6.30;;;;;;;24.88;96.87;90849.69;5032008;28;20517;-66
2022/08/25 08:00:18;;;;;;;16.08;6.35;;;;;;;24.87;100.00;90850.06;5032128;28;20036;-67
2022/08/25 08:02:44;;;;;;;9.07;6.50;;;;;;;24.68;100.00;90848.63;5032053;28;20056;-67
2022/08/25 08:05:11;;;;;;;12.40;7.47;;;;;;;25.21;100.00;90853.00;5032037;28;20490;-67
2022/08/25 08:07:36;;;;;;;7.30;4.95;;;;;;;28.40;75.62;90863.75;5031948;28;20030;-67
2022/08/25 08:10:05;;;;;;;10.07;6.03;;;;;;;32.46;56.36;90869.56;5014018;28;20128;-67
2022/08/25 08:12:31;;;;;;;9.00;5.05;;;;;;;33.45;51.19;90865.22;5031780;28;20418;-67
2022/08/25 08:14:57;;;;;;;8.65;4.60;;;;;;;34.34;48.66;90858.19;5031936;28;20021;-66
2022/08/25 08:17:23;;;;;;;10.00;4.70;;;;;;;33.56;49.35;90859.31;5031748;28;20422;-67
2022/08/25 08:19:49;;;;;;;8.50;5.32;;;;;;;30.28;54.47;90853.28;5031670;28;20029;-67
2022/08/25 08:22:14;;;;;;;9.18;6.10;;;;;;;28.90;59.09;90854.56;5031696;28;20372;-67
2022/08/25 08:25:02;;;;;;;12.23;5.30;;;;;;;27.34;64.45;90844.44;5031765;28;20040;-69
2022/08/25 08:27:28;;;;;;;6.90;4.88;;;;;;;30.17;60.35;90847.31;5031707;28;20021;-70
2022/08/25 08:29:53;;;;;;;7.97;4.65;;;;;;;34.22;47.35;90852.31;5031577;28;20109;-63
2022/08/25 08:32:19;;;;;;;9.95;3.78;;;;;;;36.57;42.72;90849.97;5030864;28;20112;-63
2022/08/25 08:34:46;;;;;;;6.40;3.30;;;;;;;38.07;38.13;90850.41;5031811;28;20029;-64
2022/08/25 08:37:12;;;;;;;8.90;4.55;;;;;;;35.71;42.00;90849.78;5031486;28;20028;-64
2022/08/25 08:39:38;;;;;;;5.20;3.55;;;;;;;34.76;42.90;90845.34;5031286;28;20033;-64
2022/08/25 08:42:15;;;;;;;11.73;3.42;;;;;;;31.21;47.48;90840.50;5031348;28;20029;-64
2022/08/25 08:44:44;;;;;;;7.85;3.95;;;;;;;31.06;50.28;90835.84;5031356;28;20475;-64
2022/08/25 08:47:15;;;;;;;10.45;4.13;;;;;;;30.24;51.53;90835.38;5031353;28;20099;-64
2022/08/25 08:50:03;;;;;;;10.43;4.22;;;;;;;30.92;51.08;90837.03;5031403;28;20030;-65
2022/08/25 08:52:56;;;;;;;9.82;5.65;;;;;;;29.03;55.17;90840.97;5031183;28;20049;-64
2022/08/25 08:55:40;;;;;;;10.75;4.63;;;;;;;27.47;61.52;90833.72;5023091;28;20045;-64
2022/08/25 08:58:31;;;;;;;14.15;4.15;;;;;;;31.04;52.69;90835.53;5030963;28;20061;-64
2022/08/25 09:00:57;;;;;;;10.48;3.60;;;;;;;35.34;43.46;90847.09;5030938;28;20047;-64
2022/08/25 09:03:35;;;;;;;4.53;3.33;;;;;;;35.41;41.41;90835.75;5031182;28;20048;-64
2022/08/25 09:06:06;;;;;;;9.73;3.33;;;;;;;36.38;40.02;90842.25;5031200;28;20029;-64
2022/08/25 09:08:32;;;;;;;22.38;12.90;;;;;;;37.65;38.36;90845.16;5030901;28;20021;-64
2022/08/25 09:11:35;;;;;;;9.45;3.92;;;;;;;36.89;36.18;90837.25;5031034;28;20033;-64
2022/08/25 09:14:39;;;;;;;9.70;2.90;;;;;;;34.79;39.76;90829.81;5018896;28;20465;-64
2022/08/25 09:17:22;;;;;;;7.53;3.20;;;;;;;37.26;37.66;90847.25;5030993;28;20040;-64
2022/08/25 09:20:26;;;;;;;;;;;;;;;38.94;35.40;90834.63;5031224;28;20021;-72
2022/08/25 09:23:09;;;;;;;10.93;3.85;;;;;;;39.17;35.37;90838.44;4969856;28;19914;-71
2022/08/25 09:25:50;;;;;;;5.18;3.80;;;;;;;33.74;41.87;90831.00;4969957;28;20117;-69
2022/08/25 09:28:26;;;;;;;9.57;4.18;;;;;;;34.43;41.13;90825.84;5011873;28;20103;-71
2022/08/25 09:31:16;;;;;;;7.30;3.30;;;;;;;30.56;46.63;90827.03;5030861;28;20029;-71
2022/08/25 09:33:41;;;;;;;5.93;3.28;;;;;;;31.97;47.73;90823.22;5030800;28;20026;-72
2022/08/25 09:36:07;;;;;;;7.85;2.85;;;;;;;34.42;40.59;90818.03;5030704;28;20033;-71
2022/08/25 09:38:32;;;;;;;4.30;2.55;;;;;;;34.93;38.93;90828.47;5030551;28;20021;-68
2022/08/25 09:40:59;;;;;;;7.45;4.13;;;;;;;33.14;42.17;90825.81;5030716;28;20484;-72
2022/08/25 09:43:31;;;;;;;12.55;4.50;;;;;;;33.71;41.40;90818.13;5032005;28;20034;-71
2022/08/25 09:46:16;;;;;;;9.48;4.63;;;;;;;30.01;47.27;90820.66;5034458;28;20033;-71
2022/08/25 09:49:09;;;;;;;6.10;3.13;;;;;;;30.01;48.11;90806.94;5034314;28;20087;-72
2022/08/25 09:51:40;;;;;;;7.30;3.28;;;;;;;33.10;43.48;90814.16;5034491;28;20026;-72
2022/08/25 09:54:20;;;;;;;7.45;3.92;;;;;;;31.45;45.66;90805.22;5034300;28;20091;-72
2022/08/25 09:56:58;;;;;;;6.68;3.95;;;;;;;30.62;45.54;90813.59;5034440;28;20038;-73
2022/08/25 09:59:29;;;;;;;11.05;4.63;;;;;;;29.14;48.77;90808.66;5034201;28;20483;-73
2022/08/25 10:01:57;;;;;;;6.53;3.05;;;;;;;27.87;52.13;90810.00;5034513;28;20136;-74
2022/08/25 10:04:36;;;;;;;6.82;3.42;;;;;;;27.88;53.76;90811.53;5034176;28;20025;-73
2022/08/25 10:07:20;;;;;;;5.30;3.03;;;;;;;26.32;55.87;90801.72;5034198;28;20079;-73
2022/08/25 10:10:02;;;;;;;5.05;3.25;;;;;;;25.14;62.71;90804.81;5033827;28;20068;-74
2022/08/25 10:12:45;;;;;;;12.32;3.17;;;;;;;25.23;65.84;90807.06;5034038;28;20034;-72
2022/08/25 10:15:19;;;;;;;6.75;3.40;;;;;;;25.65;65.47;90797.75;5034080;28;20037;-73
2022/08/25 10:17:45;;;;;;;6.38;3.22;;;;;;;26.06;62.17;90807.88;5033801;28;20034;-74
2022/08/25 10:20:17;;;;;;;9.10;3.20;;;;;;;26.39;61.75;90801.66;5033974;28;20040;-73
2022/08/25 10:22:43;;;;;;;4.50;2.80;;;;;;;27.85;57.74;90793.25;5033918;28;20055;-72
2022/08/25 10:25:12;;;;;;;3.97;2.80;;;;;;;30.28;52.94;90806.63;5033805;28;20559;-71
2022/08/25 10:28:09;;;;;;;9.27;2.80;;;;;;;29.79;50.34;90801.22;5033676;28;20053;-72
2022/08/25 10:30:58;;;;;;;5.45;2.88;;;;;;;29.32;51.68;90795.31;5034062;28;20060;-71
2022/08/25 10:33:46;;;;;;;4.55;2.40;;;;;;;30.35;50.97;90789.22;5033673;28;20083;-73
2022/08/25 10:36:34;;;;;;;6.45;2.75;;;;;;;34.00;42.62;90787.41;5033647;28;20474;-74
2022/08/25 10:39:01;;;;;;;3.70;2.58;;;;;;;33.46;43.13;90789.56;5014020;28;20045;-74
2022/08/25 10:41:53;;;;;;;10.88;3.42;;;;;;;32.84;43.62;90788.78;5033640;28;20103;-74
2022/08/25 10:47:40;;;;;;;3.75;2.75;;;;;;;31.66;46.16;90767.25;5033718;28;20033;-72
2022/08/25 10:50:24;;;;;;;4.18;2.75;;;;;;;31.98;45.54;90764.22;5033464;28;20037;-73
2022/08/25 10:52:49;;;;;;;4.93;2.60;;;;;;;31.66;45.83;90768.03;5033316;28;20104;-72
2022/08/25 10:55:52;;;;;;;4.60;2.85;;;;;;;31.81;46.34;90769.09;5032594;28;20120;-73
2022/08/25 10:58:21;;;;;;;;;;;;;;;32.10;45.45;90768.91;4953335;29;20039;-72
2022/08/25 11:01:01;;;;;;;4.82;2.45;;;;;;;31.00;46.57;90764.19;4994603;28;19917;-73
2022/08/25 11:03:29;;;;;;;10.38;3.17;;;;;;;29.92;50.23;90764.88;5013285;28;20022;-72
2022/08/25 11:06:01;;;;;;;4.38;2.72;;;;;;;29.31;51.09;90755.41;5013089;28;20033;-73
2022/08/25 11:08:27;;;;;;;5.32;2.83;;;;;;;28.91;51.52;90761.03;5012930;28;20037;-72
2022/08/25 11:11:23;;;;;;;6.18;2.75;;;;;;;30.22;50.17;90749.97;5013258;28;20030;-72
2022/08/25 11:14:04;;;;;;;10.27;2.67;;;;;;;33.46;44.17;90750.19;5013209;28;20044;-70
2022/08/25 11:16:37;;;;;;;5.95;2.40;;;;;;;34.94;41.97;90758.88;5013018;28;20029;-71
2022/08/25 11:19:25;;;;;;;5.70;2.30;;;;;;;34.68;42.32;90758.44;5012854;28;20065;-70
2022/08/25 11:22:02;;;;;;;4.28;2.58;;;;;;;33.45;43.93;90743.88;5013064;28;20030;-70
2022/08/25 11:24:49;;;;;;;6.65;2.90;;;;;;;33.77;42.72;90747.31;5012832;28;20104;-70
2022/08/25 11:27:21;;;;;;;4.80;2.40;;;;;;;33.39;43.54;90734.66;5012812;28;20029;-69
2022/08/25 11:30:07;;;;;;;2.95;1.98;;;;;;;31.88;45.06;90738.63;5012847;28;20388;-69
2022/08/25 11:32:34;;;;;;;6.85;2.25;;;;;;;30.22;48.21;90723.31;5012686;28;20030;-70
2022/08/25 11:35:02;;;;;;;7.43;2.53;;;;;;;28.81;52.45;90731.13;5012735;28;20033;-69
2022/08/25 11:37:30;;;;;;;9.25;2.70;;;;;;;27.79;53.83;90724.63;5012629;28;20108;-68
2022/08/25 11:40:26;;;;;;;4.57;2.78;;;;;;;28.16;54.44;90734.44;5012639;28;20050;-71
2022/08/25 11:43:00;;;;;;;10.57;2.90;;;;;;;29.54;51.11;90721.59;5012669;28;20061;-70
2022/08/25 11:46:07;;;;;;;7.85;2.42;;;;;;;29.59;51.21;90725.78;5012546;28;20045;-69
2022/08/25 11:48:54;;;;;;;7.70;2.58;;;;;;;28.89;51.85;90718.84;5012396;28;20032;-69
2022/08/25 11:51:40;;;;;;;6.32;2.83;;;;;;;28.46;53.54;90719.00;5012397;28;20108;-69
2022/08/25 11:54:27;;;;;;;8.35;2.13;;;;;;;27.93;54.93;90715.34;5012641;28;20507;-63
2022/08/25 11:57:05;;;;;;;9.20;2.92;;;;;;;28.91;52.74;90716.44;5012477;28;20030;-64
2022/08/25 11:59:49;;;;;;;7.15;2.53;;;;;;;28.37;54.13;90716.06;5012131;28;20030;-64